createdAt,value
2023-03-06T00:01:10.968Z,32.62
2023-03-06T00:03:37.501Z,32.26
2023-03-06T00:06:04.076Z,33.90
2023-03-06T00:08:30.547Z,34.56
2023-03-06T00:10:56.958Z,33.72
2023-03-06T00:13:23.385Z,34.16
2023-03-06T00:15:49.989Z,33.74
2023-03-06T00:18:16.457Z,36.04
2023-03-06T00:20:42.910Z,36.71
2023-03-06T00:23:09.327Z,38.05
2023-03-06T00:25:35.712Z,38.15
2023-03-06T00:28:02.161Z,37.23
2023-03-06T00:30:28.749Z,37.09
2023-03-06T00:32:55.213Z,37.26
2023-03-06T00:35:21.702Z,36.94
2023-03-06T00:37:48.125Z,37.19
2023-03-06T00:40:14.541Z,36.29
2023-03-06T00:42:40.986Z,36.73
2023-03-06T00:45:07.428Z,35.37
2023-03-06T00:47:33.918Z,35.08
2023-03-06T00:50:00.433Z,35.03
2023-03-06T00:52:26.886Z,35.66
2023-03-06T00:54:53.332Z,36.03
2023-03-06T00:57:19.957Z,36.33
2023-03-06T00:59:49.323Z,36.15
2023-03-06T01:02:15.838Z,35.53
2023-03-06T01:04:42.235Z,35.63
2023-03-06T01:07:08.709Z,37.75
2023-03-06T01:09:35.110Z,37.88
2023-03-06T01:12:01.548Z,39.15
2023-03-06T01:14:27.961Z,39.53
2023-03-06T01:16:54.403Z,38.90
2023-03-06T01:19:20.816Z,38.82
2023-03-06T01:21:47.275Z,38.26
2023-03-06T01:24:13.738Z,38.23
2023-03-06T01:26:40.200Z,38.21
2023-03-06T01:29:06.625Z,38.38
2023-03-06T01:31:33.163Z,37.70
2023-03-06T01:33:59.730Z,37.47
2023-03-06T01:36:26.198Z,39.84
2023-03-06T01:38:52.687Z,41.22
2023-03-06T01:41:19.154Z,40.94
2023-03-06T01:43:45.597Z,38.75
2023-03-06T01:46:12.070Z,37.67
2023-03-06T01:48:38.470Z,37.58
2023-03-06T01:51:04.845Z,38.69
2023-03-06T01:53:31.240Z,38.08
2023-03-06T01:55:57.686Z,37.73
2023-03-06T01:58:24.131Z,36.86
2023-03-06T02:00:50.553Z,38.68
2023-03-06T02:03:17.009Z,38.25
2023-03-06T02:05:43.404Z,38.03
2023-03-06T02:08:09.773Z,39.13
2023-03-06T02:10:36.202Z,37.82
2023-03-06T02:13:02.671Z,36.42
2023-03-06T02:15:29.106Z,37.31
2023-03-06T02:17:55.588Z,37.52
2023-03-06T02:20:22.018Z,36.07
2023-03-06T02:22:48.664Z,35.32
2023-03-06T02:25:15.180Z,35.71
2023-03-06T02:27:41.656Z,35.56
2023-03-06T02:30:08.159Z,35.75
2023-03-06T02:32:34.634Z,36.02
2023-03-06T02:35:01.141Z,33.94
2023-03-06T02:37:27.573Z,35.97
2023-03-06T02:39:54.024Z,37.17
2023-03-06T02:42:20.468Z,36.71
2023-03-06T02:44:46.924Z,36.41
2023-03-06T02:47:13.296Z,35.23
2023-03-06T02:49:39.721Z,36.00
2023-03-06T02:52:06.107Z,34.69
2023-03-06T02:54:32.537Z,35.97
2023-03-06T02:56:59.162Z,35.44
2023-03-06T02:59:25.575Z,35.10
2023-03-06T03:01:52.037Z,35.67
2023-03-06T03:04:18.527Z,36.28
2023-03-06T03:06:45.038Z,36.34
2023-03-06T03:09:11.413Z,36.40
2023-03-06T03:11:37.965Z,34.82
2023-03-06T03:14:04.390Z,33.17
2023-03-06T03:16:30.819Z,31.97
2023-03-06T03:18:57.266Z,31.54
2023-03-06T03:21:23.833Z,32.93
2023-03-06T03:23:50.320Z,34.64
2023-03-06T03:26:16.769Z,36.36
2023-03-06T03:28:43.227Z,38.20
2023-03-06T03:31:09.744Z,38.75
2023-03-06T03:33:36.479Z,37.43
2023-03-06T03:36:02.977Z,38.21
2023-03-06T03:38:29.421Z,38.37
2023-03-06T03:40:55.879Z,37.26
2023-03-06T03:43:22.320Z,38.62
2023-03-06T03:45:50.322Z,36.98
2023-03-06T03:48:16.744Z,36.59
2023-03-06T03:50:43.186Z,36.04
2023-03-06T03:53:09.681Z,35.84
2023-03-06T03:55:36.081Z,35.72
2023-03-06T03:58:02.511Z,34.85
2023-03-06T04:00:28.946Z,33.46
2023-03-06T04:02:55.365Z,34.56
2023-03-06T04:05:21.773Z,33.27
2023-03-06T04:07:48.123Z,33.16
2023-03-06T04:10:14.585Z,34.71
2023-03-06T04:12:41.016Z,34.19
2023-03-06T04:15:07.487Z,35.10
2023-03-06T04:17:33.991Z,34.20
2023-03-06T04:20:00.438Z,34.79
2023-03-06T04:22:26.867Z,35.37
2023-03-06T04:24:53.393Z,34.96
2023-03-06T04:27:20.021Z,35.13
2023-03-06T04:29:46.522Z,36.00
2023-03-06T04:32:13.018Z,36.21
2023-03-06T04:34:39.584Z,33.69
2023-03-06T04:37:06.018Z,34.08
2023-03-06T04:39:32.473Z,33.95
2023-03-06T04:41:58.936Z,34.66
2023-03-06T04:44:25.507Z,35.07
2023-03-06T04:46:51.949Z,35.26
2023-03-06T04:49:18.374Z,34.02
2023-03-06T04:51:44.779Z,33.71
2023-03-06T04:54:11.229Z,35.05
2023-03-06T04:56:37.754Z,34.72
2023-03-06T04:59:04.284Z,34.30
2023-03-06T05:01:30.665Z,35.65
2023-03-06T05:03:57.127Z,34.31
2023-03-06T05:06:25.691Z,34.20
2023-03-06T05:08:52.110Z,33.85
2023-03-06T05:11:18.549Z,32.97
2023-03-06T05:13:44.930Z,34.47
2023-03-06T05:16:11.434Z,32.89
2023-03-06T05:18:37.907Z,33.77
2023-03-06T05:21:04.347Z,34.12
2023-03-06T05:23:30.708Z,32.80
2023-03-06T05:25:57.141Z,33.33
2023-03-06T05:28:23.573Z,33.85
2023-03-06T05:30:50.107Z,33.08
2023-03-06T05:33:16.613Z,34.15
2023-03-06T05:35:43.066Z,34.01
2023-03-06T05:38:09.828Z,33.93
2023-03-06T05:40:36.644Z,34.58
2023-03-06T05:43:03.083Z,34.73
2023-03-06T05:45:29.540Z,34.63
2023-03-06T05:47:55.960Z,34.25
2023-03-06T05:50:22.388Z,34.78
2023-03-06T05:52:48.820Z,34.68
2023-03-06T05:55:15.230Z,35.50
2023-03-06T05:57:41.856Z,36.41
2023-03-06T06:00:08.265Z,37.29
2023-03-06T06:02:34.745Z,35.66
2023-03-06T06:05:01.220Z,35.85
2023-03-06T06:07:27.716Z,35.86
2023-03-06T06:09:54.177Z,37.17
2023-03-06T06:12:20.589Z,36.06
2023-03-06T06:14:46.958Z,36.32
2023-03-06T06:17:13.406Z,36.50
2023-03-06T06:19:39.876Z,36.16
2023-03-06T06:22:06.470Z,35.46
2023-03-06T06:24:32.951Z,33.58
2023-03-06T06:27:00.950Z,33.64
2023-03-06T06:29:29.029Z,34.87
2023-03-06T06:31:55.403Z,34.94
2023-03-06T06:34:21.766Z,34.71
2023-03-06T06:36:48.277Z,35.64
2023-03-06T06:39:14.847Z,36.06
2023-03-06T06:41:59.450Z,35.45
2023-03-06T06:44:27.681Z,36.03
2023-03-06T06:49:40.462Z,36.12
2023-03-06T06:52:06.911Z,36.36
2023-03-06T06:54:33.401Z,35.45
2023-03-06T06:56:59.924Z,33.26
2023-03-06T06:59:26.518Z,33.92
2023-03-06T07:01:53.164Z,35.04
2023-03-06T07:04:19.748Z,35.43
2023-03-06T07:06:46.278Z,35.20
2023-03-06T07:09:12.757Z,35.10
2023-03-06T07:11:39.168Z,36.04
2023-03-06T07:14:05.654Z,35.52
2023-03-06T07:16:32.316Z,36.22
2023-03-06T07:18:58.763Z,35.08
2023-03-06T07:21:25.234Z,35.15
2023-03-06T07:23:51.764Z,35.31
2023-03-06T07:26:18.219Z,35.15
2023-03-06T07:28:52.280Z,35.39
2023-03-06T07:31:19.261Z,34.97
2023-03-06T07:33:45.751Z,35.82
2023-03-06T07:36:13.788Z,35.07
2023-03-06T07:38:40.509Z,34.73
2023-03-06T07:41:10.091Z,34.04
2023-03-06T07:43:36.617Z,33.02
2023-03-06T07:46:03.060Z,31.12
2023-03-06T07:48:29.570Z,28.93
2023-03-06T07:50:56.011Z,26.69
2023-03-06T07:53:22.395Z,26.29
2023-03-06T07:55:48.973Z,27.14
2023-03-06T07:58:15.455Z,26.72
2023-03-06T08:00:41.871Z,27.47
2023-03-06T08:03:08.383Z,26.70
2023-03-06T08:05:34.841Z,26.74
2023-03-06T08:08:01.212Z,26.01
2023-03-06T08:10:27.584Z,26.93
2023-03-06T08:12:53.975Z,27.12
2023-03-06T08:15:20.346Z,27.86
2023-03-06T08:17:46.744Z,26.46
2023-03-06T08:20:13.196Z,26.61
2023-03-06T08:22:39.737Z,27.61
2023-03-06T08:25:06.175Z,27.25
2023-03-06T08:27:32.712Z,27.26
2023-03-06T08:29:59.116Z,27.79
2023-03-06T08:35:05.792Z,27.11
2023-03-06T08:37:34.497Z,27.84
2023-03-06T08:40:01.006Z,29.30
2023-03-06T08:42:27.499Z,28.92
2023-03-06T08:44:53.910Z,30.20
2023-03-06T08:47:20.290Z,30.51
2023-03-06T08:49:46.781Z,31.01
2023-03-06T08:52:13.197Z,34.84
2023-03-06T08:54:39.556Z,35.63
2023-03-06T08:57:06.100Z,33.05
2023-03-06T08:59:32.607Z,31.28
2023-03-06T09:01:59.072Z,31.31
2023-03-06T09:04:25.538Z,30.86
2023-03-06T09:06:53.134Z,29.84
2023-03-06T09:09:22.425Z,30.93
2023-03-06T09:11:48.830Z,30.94
2023-03-06T09:14:15.348Z,31.24
2023-03-06T09:16:41.797Z,31.80
2023-03-06T09:19:08.297Z,32.04
2023-03-06T09:21:34.768Z,38.13
2023-03-06T09:24:01.211Z,38.35
2023-03-06T09:26:39.645Z,41.66
2023-03-06T09:29:11.248Z,42.87
2023-03-06T09:31:37.736Z,41.36
2023-03-06T09:34:05.092Z,44.26
2023-03-06T09:36:31.516Z,45.07
2023-03-06T09:38:57.908Z,42.98
2023-03-06T09:41:24.403Z,40.27
2023-03-06T09:43:50.848Z,42.89
2023-03-06T09:46:17.263Z,45.80
2023-03-06T09:48:43.630Z,43.73
2023-03-06T09:51:10.021Z,44.64
2023-03-06T09:53:36.396Z,45.79
2023-03-06T09:56:02.760Z,44.89
2023-03-06T09:58:29.204Z,45.66
2023-03-06T10:00:55.584Z,46.33
2023-03-06T10:03:21.976Z,46.13
2023-03-06T10:05:48.392Z,45.22
2023-03-06T10:08:14.820Z,46.33
2023-03-06T10:10:41.188Z,44.53
2023-03-06T10:13:07.613Z,44.23
2023-03-06T10:15:34.181Z,43.35
2023-03-06T10:18:00.654Z,43.09
2023-03-06T10:20:27.089Z,42.79
2023-03-06T10:23:01.063Z,42.96
2023-03-06T10:25:30.544Z,42.92
2023-03-06T10:27:56.964Z,42.47
2023-03-06T10:30:23.425Z,43.72
2023-03-06T10:32:50.115Z,43.15
2023-03-06T10:35:16.537Z,42.16
2023-03-06T10:37:42.887Z,41.56
2023-03-06T10:40:09.476Z,42.55
2023-03-06T10:42:35.898Z,42.66
2023-03-06T10:45:02.512Z,42.18
2023-03-06T10:47:29.026Z,42.09
2023-03-06T10:49:55.468Z,43.31
2023-03-06T10:52:23.969Z,43.06
2023-03-06T10:54:50.389Z,45.34
2023-03-06T10:57:16.857Z,46.70
2023-03-06T10:59:43.278Z,45.34
2023-03-06T11:02:09.723Z,45.26
2023-03-06T11:04:36.395Z,45.31
2023-03-06T11:07:02.838Z,44.55
2023-03-06T11:09:29.215Z,44.67
2023-03-06T11:11:55.630Z,44.93
2023-03-06T11:14:22.007Z,44.54
2023-03-06T11:16:48.444Z,43.73
2023-03-06T11:19:14.802Z,43.50
2023-03-06T11:21:41.239Z,44.43
2023-03-06T11:24:07.728Z,44.16
2023-03-06T11:26:34.112Z,44.90
2023-03-06T11:29:00.614Z,45.99
2023-03-06T11:31:27.017Z,45.98
2023-03-06T11:33:53.614Z,45.42
2023-03-06T11:36:20.046Z,46.19
2023-03-06T11:38:46.396Z,46.15
2023-03-06T11:41:12.863Z,44.66
2023-03-06T11:43:39.234Z,45.13
2023-03-06T11:46:05.612Z,44.87
2023-03-06T11:48:32.081Z,46.06
2023-03-06T11:50:58.537Z,45.61
2023-03-06T11:53:24.917Z,44.46
2023-03-06T11:55:51.387Z,45.85
2023-03-06T11:58:17.746Z,44.92
2023-03-06T12:00:44.148Z,45.88
2023-03-06T12:03:10.528Z,47.33
2023-03-06T12:05:36.978Z,47.26
2023-03-06T12:08:03.512Z,46.81
2023-03-06T12:10:29.920Z,47.40
2023-03-06T12:12:57.487Z,46.38
2023-03-06T12:15:23.920Z,45.28
2023-03-06T12:17:50.332Z,45.18
2023-03-06T12:20:16.773Z,46.27
2023-03-06T12:22:44.364Z,46.58
2023-03-06T12:25:12.789Z,46.16
2023-03-06T12:27:39.168Z,46.20
2023-03-06T12:30:05.595Z,46.42
2023-03-06T12:32:32.039Z,48.71
2023-03-06T12:34:58.544Z,49.27
2023-03-06T12:37:24.964Z,48.27
2023-03-06T12:39:51.341Z,47.27
2023-03-06T12:42:23.086Z,46.71
2023-03-06T12:44:50.056Z,47.77
2023-03-06T12:47:16.480Z,46.10
2023-03-06T12:49:42.894Z,45.30
2023-03-06T12:52:09.828Z,46.44
2023-03-06T12:54:36.301Z,46.49
2023-03-06T12:57:02.745Z,46.45
2023-03-06T12:59:29.137Z,46.78
2023-03-06T13:01:55.562Z,46.80
2023-03-06T13:04:22.096Z,46.61
2023-03-06T13:06:50.719Z,47.17
2023-03-06T13:09:17.702Z,47.81
2023-03-06T13:11:44.119Z,45.89
2023-03-06T13:14:10.497Z,46.26
2023-03-06T13:16:36.926Z,46.27
2023-03-06T13:19:03.439Z,43.39
2023-03-06T13:21:29.893Z,44.92
2023-03-06T13:23:56.292Z,46.41
2023-03-06T13:26:22.704Z,46.56
2023-03-06T13:28:49.155Z,47.34
2023-03-06T13:31:27.031Z,46.19
2023-03-06T13:33:54.035Z,45.61
2023-03-06T13:36:20.383Z,45.79
2023-03-06T13:38:46.742Z,45.60
2023-03-06T13:41:13.204Z,45.75
2023-03-06T13:43:39.638Z,43.05
2023-03-06T13:46:06.074Z,45.74
2023-03-06T13:48:47.819Z,43.74
2023-03-06T13:51:14.316Z,30.04
2023-03-06T13:53:40.789Z,43.11
2023-03-06T13:56:07.311Z,42.52
2023-03-06T13:58:33.699Z,43.55
2023-03-06T14:01:00.072Z,43.47
2023-03-06T14:03:26.498Z,43.99
2023-03-06T14:05:52.864Z,44.77
2023-03-06T14:08:19.302Z,42.89
2023-03-06T14:10:45.730Z,44.07
2023-03-06T14:13:12.142Z,43.70
2023-03-06T14:15:38.591Z,38.34
2023-03-06T14:18:04.969Z,38.74
2023-03-06T14:20:31.409Z,39.03
2023-03-06T14:22:57.750Z,37.09
2023-03-06T14:25:24.108Z,36.43
2023-03-06T14:27:50.530Z,36.68
2023-03-06T14:30:16.946Z,31.51
2023-03-06T14:32:43.428Z,30.68
2023-03-06T14:35:09.881Z,30.74
2023-03-06T14:37:36.294Z,28.86
2023-03-06T14:40:02.662Z,30.10
2023-03-06T14:42:29.031Z,29.38
2023-03-06T14:44:55.507Z,28.34
2023-03-06T14:47:22.103Z,28.17
2023-03-06T14:49:48.553Z,28.88
2023-03-06T14:52:15.029Z,27.99
2023-03-06T14:54:41.428Z,28.23
2023-03-06T14:57:07.858Z,27.71
2023-03-06T14:59:34.385Z,26.46
2023-03-06T15:02:00.835Z,27.37
2023-03-06T15:04:27.322Z,24.29
2023-03-06T15:06:53.737Z,28.19
2023-03-06T15:09:20.118Z,29.60
2023-03-06T15:11:46.552Z,28.99
2023-03-06T15:14:12.972Z,28.71
2023-03-06T15:16:39.329Z,28.01
2023-03-06T15:19:05.732Z,28.17
2023-03-06T15:21:32.078Z,28.11
2023-03-06T15:23:58.551Z,29.60
2023-03-06T15:26:24.961Z,29.57
2023-03-06T15:28:54.284Z,27.65
2023-03-06T15:31:23.188Z,26.70
2023-03-06T15:33:49.538Z,28.03
2023-03-06T15:36:15.908Z,28.34
2023-03-06T15:38:42.292Z,28.46
2023-03-06T15:41:08.647Z,24.98
2023-03-06T15:43:35.024Z,22.64
2023-03-06T15:46:01.435Z,23.47
2023-03-06T15:48:27.785Z,23.18
2023-03-06T15:50:54.184Z,24.46
2023-03-06T15:53:20.722Z,23.15
2023-03-06T15:55:47.236Z,23.66
2023-03-06T15:58:13.642Z,19.86
2023-03-06T16:00:40.063Z,20.64
2023-03-06T16:03:06.498Z,21.19
2023-03-06T16:05:32.854Z,20.42
2023-03-06T16:07:59.276Z,20.59
2023-03-06T16:10:25.749Z,22.53
2023-03-06T16:12:52.158Z,23.39
2023-03-06T16:15:18.519Z,19.64
2023-03-06T16:17:44.945Z,19.34
2023-03-06T16:20:11.398Z,18.94
2023-03-06T16:22:37.776Z,23.53
2023-03-06T16:25:04.300Z,20.71
2023-03-06T16:27:30.693Z,19.70
2023-03-06T16:29:57.030Z,21.50
2023-03-06T16:32:23.490Z,24.51
2023-03-06T16:34:49.962Z,24.85
2023-03-06T16:37:16.354Z,24.84
2023-03-06T16:39:42.744Z,24.10
2023-03-06T16:42:09.092Z,24.20
2023-03-06T16:44:35.501Z,23.92
2023-03-06T16:47:01.947Z,22.14
2023-03-06T16:49:28.315Z,23.09
2023-03-06T16:51:54.678Z,23.66
2023-03-06T16:54:21.049Z,23.82
2023-03-06T16:56:47.464Z,24.48
2023-03-06T16:59:14.028Z,23.01
2023-03-06T17:01:40.460Z,22.64
2023-03-06T17:04:06.885Z,22.25
2023-03-06T17:06:33.320Z,22.35
2023-03-06T17:08:59.684Z,21.95
2023-03-06T17:11:26.088Z,22.47
2023-03-06T17:13:52.409Z,21.96
2023-03-06T17:16:18.844Z,21.92
2023-03-06T17:18:45.341Z,22.81
2023-03-06T17:21:11.716Z,23.63
2023-03-06T17:23:38.067Z,24.76
2023-03-06T17:26:04.459Z,22.91
2023-03-06T17:28:30.803Z,16.76
2023-03-06T17:30:57.221Z,15.54
2023-03-06T17:33:23.602Z,15.36
2023-03-06T17:35:50.147Z,15.26
2023-03-06T17:38:16.528Z,14.01
2023-03-06T17:40:42.904Z,15.02
2023-03-06T17:43:09.388Z,15.47
2023-03-06T17:45:35.862Z,15.49
2023-03-06T17:48:02.215Z,15.77
2023-03-06T17:50:28.645Z,15.92
2023-03-06T17:52:55.174Z,14.89
2023-03-06T17:55:21.557Z,15.11
2023-03-06T17:57:48.030Z,15.52
2023-03-06T18:00:14.491Z,15.98
2023-03-06T18:02:40.924Z,15.76
2023-03-06T18:05:07.403Z,15.74
2023-03-06T18:07:33.834Z,16.32
2023-03-06T18:10:00.228Z,16.87
2023-03-06T18:12:26.637Z,16.04
2023-03-06T18:14:53.045Z,16.30
2023-03-06T18:17:19.580Z,16.06
2023-03-06T18:19:45.935Z,17.85
2023-03-06T18:22:12.331Z,19.44
2023-03-06T18:24:38.686Z,19.34
2023-03-06T18:27:05.117Z,19.48
2023-03-06T18:29:31.577Z,23.17
2023-03-06T18:31:58.042Z,23.12
2023-03-06T18:34:24.487Z,21.72
2023-03-06T18:36:50.861Z,20.48
2023-03-06T18:39:17.286Z,19.22
2023-03-06T18:41:43.733Z,19.39
2023-03-06T18:44:10.161Z,16.76
2023-03-06T18:46:36.530Z,17.57
2023-03-06T18:49:02.923Z,15.64
2023-03-06T18:51:29.344Z,16.42
2023-03-06T18:53:55.678Z,16.25
2023-03-06T18:56:22.083Z,15.43
2023-03-06T18:58:48.639Z,14.94
2023-03-06T19:01:15.155Z,14.67
2023-03-06T19:03:41.580Z,15.27
2023-03-06T19:06:07.994Z,14.08
2023-03-06T19:08:34.435Z,11.63
2023-03-06T19:11:00.868Z,11.77
2023-03-06T19:13:27.250Z,11.81
2023-03-06T19:15:53.591Z,11.47
2023-03-06T19:18:20.007Z,11.73
2023-03-06T19:20:46.459Z,12.42
2023-03-06T19:23:12.848Z,11.26
2023-03-06T19:25:39.303Z,11.10
2023-03-06T19:28:05.747Z,13.32
2023-03-06T19:30:32.466Z,13.20
2023-03-06T19:32:58.904Z,13.26
2023-03-06T19:35:25.294Z,13.67
2023-03-06T19:37:51.782Z,13.31
2023-03-06T19:40:18.240Z,12.50
2023-03-06T19:42:44.654Z,12.65
2023-03-06T19:45:11.104Z,12.20
2023-03-06T19:47:37.606Z,12.45
2023-03-06T19:50:04.013Z,12.80
2023-03-06T19:52:30.417Z,12.34
2023-03-06T19:54:56.955Z,12.00
2023-03-06T19:57:23.353Z,12.02
2023-03-06T19:59:49.847Z,11.60
2023-03-06T20:02:16.265Z,11.10
2023-03-06T20:04:42.706Z,12.44
2023-03-06T20:07:09.138Z,11.70
2023-03-06T20:09:35.578Z,11.28
2023-03-06T20:12:01.916Z,11.56
2023-03-06T20:14:28.350Z,10.67
2023-03-06T20:16:54.913Z,11.00
2023-03-06T20:19:21.412Z,10.94
2023-03-06T20:21:47.772Z,11.23
2023-03-06T20:24:14.101Z,11.45
2023-03-06T20:26:40.455Z,11.38
2023-03-06T20:29:07.019Z,11.18
2023-03-06T20:31:33.484Z,11.36
2023-03-06T20:33:59.934Z,11.73
2023-03-06T20:36:26.327Z,12.19
2023-03-06T20:38:52.737Z,11.31
2023-03-06T20:41:19.225Z,10.68
2023-03-06T20:43:45.586Z,10.59
2023-03-06T20:46:12.035Z,10.62
2023-03-06T20:48:38.552Z,10.69
2023-03-06T20:51:06.407Z,10.55
2023-03-06T20:53:32.745Z,10.51
2023-03-06T20:55:59.291Z,10.87
2023-03-06T20:58:25.846Z,10.69
2023-03-06T21:00:52.213Z,10.47
2023-03-06T21:03:18.600Z,10.63
2023-03-06T21:05:45.009Z,10.89
2023-03-06T21:08:11.396Z,13.00
2023-03-06T21:10:37.802Z,18.93
2023-03-06T21:13:04.227Z,21.97
2023-03-06T21:15:30.587Z,15.90
2023-03-06T21:17:56.953Z,11.82
2023-03-06T21:20:23.415Z,10.94
2023-03-06T21:22:49.790Z,10.74
2023-03-06T21:25:16.190Z,11.30
2023-03-06T21:27:42.669Z,11.42
2023-03-06T21:30:09.096Z,12.00
2023-03-06T21:32:35.592Z,11.71
2023-03-06T21:35:04.732Z,11.32
2023-03-06T21:37:31.135Z,11.48
2023-03-06T21:39:57.557Z,11.44
2023-03-06T21:42:26.647Z,11.58
2023-03-06T21:44:53.187Z,11.51
2023-03-06T21:47:19.658Z,11.52
2023-03-06T21:49:49.037Z,11.68
2023-03-06T21:52:15.411Z,11.19
2023-03-06T21:54:41.776Z,11.34
2023-03-06T21:57:08.314Z,12.36
2023-03-06T21:59:34.665Z,12.17
2023-03-06T22:02:01.076Z,12.00
2023-03-06T22:04:27.445Z,12.20
2023-03-06T22:06:53.850Z,12.43
2023-03-06T22:09:20.196Z,13.06
2023-03-06T22:11:46.559Z,12.83
2023-03-06T22:14:13.102Z,12.56
2023-03-06T22:16:39.511Z,12.19
2023-03-06T22:19:05.879Z,12.27
2023-03-06T22:21:32.236Z,12.35
2023-03-06T22:23:58.668Z,13.08
2023-03-06T22:26:25.074Z,12.99
2023-03-06T22:28:51.450Z,12.25
2023-03-06T22:31:17.900Z,12.36
2023-03-06T22:33:44.402Z,12.42
2023-03-06T22:36:10.792Z,12.35
2023-03-06T22:38:37.190Z,13.15
2023-03-06T22:41:03.600Z,13.03
2023-03-06T22:43:29.956Z,12.31
2023-03-06T22:45:56.366Z,12.72
2023-03-06T22:48:22.761Z,12.84
2023-03-06T22:50:49.123Z,12.61
2023-03-06T22:53:15.462Z,12.48
2023-03-06T22:55:41.809Z,12.46
2023-03-06T22:58:10.300Z,12.43
2023-03-06T23:00:36.668Z,12.76
2023-03-06T23:03:03.158Z,12.96
2023-03-06T23:05:29.632Z,13.35
2023-03-06T23:07:55.974Z,12.59
2023-03-06T23:10:22.345Z,12.65
2023-03-06T23:12:48.697Z,12.95
2023-03-06T23:15:15.074Z,13.78
2023-03-06T23:17:41.402Z,12.85
2023-03-06T23:20:07.734Z,13.31
2023-03-06T23:22:34.115Z,13.40
2023-03-06T23:25:00.485Z,13.36
2023-03-06T23:27:26.888Z,13.69
2023-03-06T23:29:55.519Z,13.89
2023-03-06T23:32:21.963Z,14.16
2023-03-06T23:34:48.440Z,14.13
2023-03-06T23:37:14.866Z,14.52
2023-03-06T23:39:41.241Z,14.50
2023-03-06T23:42:07.585Z,15.08
2023-03-06T23:44:34.195Z,14.91
2023-03-06T23:47:00.610Z,15.06
2023-03-06T23:49:26.957Z,14.97
2023-03-06T23:51:53.312Z,14.85
2023-03-06T23:54:19.700Z,15.98
2023-03-06T23:56:46.044Z,21.66
2023-03-06T23:59:12.456Z,23.09
